Time;durP1;ratioP1;P1;durP2;ratioP2;P2;SDS_P1;SDS_P2;PMS_P1;PMS_P2;Temp;Humidity;BMP_temperature;BMP_pressure;BME280_temperature;BME280_humidity;BME280_pressure;Samples;Min_cycle;Max_cycle;Signal;HPM_P1;HPM_P2
2021/10/20 00:00:10;;;;;;;19.62;14.00;;;;;;;14.04;48.67;102849.27;1678127;85;21482;-50
2021/10/20 00:02:41;;;;;;;18.27;14.00;;;;;;;14.02;48.78;102852.34;1667022;85;21503;-50
2021/10/20 00:05:08;;;;;;;18.55;13.83;;;;;;;13.98;48.88;102844.06;1677730;85;21546;-50
2021/10/20 00:07:35;;;;;;;16.07;12.90;;;;;;;13.97;48.90;102848.00;1671769;85;21534;-50
2021/10/20 00:10:05;;;;;;;17.82;12.78;;;;;;;13.94;48.96;102848.87;1678574;85;21050;-49
2021/10/20 00:12:33;;;;;;;19.12;14.15;;;;;;;13.94;49.00;102846.25;1682194;85;21038;-50
2021/10/20 00:15:00;;;;;;;15.83;12.20;;;;;;;13.93;48.90;102841.88;1680877;85;21046;-50
2021/10/20 00:17:26;;;;;;;14.65;11.97;;;;;;;13.93;48.81;102843.19;1680860;85;21581;-49
2021/10/20 00:19:58;;;;;;;14.53;11.68;;;;;;;13.95;48.77;102842.73;1677736;85;21051;-49
2021/10/20 00:22:21;;;;;;;16.50;11.15;;;;;;;13.97;48.74;102842.33;1673413;85;20995;-49
2021/10/20 00:24:48;;;;;;;16.00;12.20;;;;;;;13.96;48.50;102839.27;1675600;85;21105;-50
2021/10/20 00:27:16;;;;;;;18.30;12.55;;;;;;;14.00;48.38;102842.73;1675209;85;21072;-49
2021/10/20 00:29:42;;;;;;;13.13;11.35;;;;;;;13.99;48.36;102840.58;1675990;85;21034;-48
2021/10/20 00:32:09;;;;;;;18.10;12.75;;;;;;;13.98;48.27;102842.75;1676387;85;21022;-50
2021/10/20 00:34:35;;;;;;;14.45;11.65;;;;;;;13.98;48.23;102842.75;1680166;85;21078;-51
2021/10/20 00:37:03;;;;;;;14.18;12.35;;;;;;;13.96;48.31;102843.19;1675584;85;21059;-50
2021/10/20 00:39:29;;;;;;;16.42;11.57;;;;;;;13.96;48.38;102837.95;1675436;85;21035;-49
2021/10/20 00:41:56;;;;;;;17.15;12.37;;;;;;;13.94;48.38;102830.55;1675743;85;21554;-47
2021/10/20 00:44:23;;;;;;;13.98;11.50;;;;;;;13.96;48.51;102832.72;1676784;85;21023;-49
2021/10/20 00:46:50;;;;;;;15.05;11.30;;;;;;;13.97;48.47;102835.79;1677793;85;21043;-49
2021/10/20 00:49:17;;;;;;;16.35;12.35;;;;;;;13.98;48.42;102820.50;1701434;82;21510;-50
2021/10/20 00:51:43;;;;;;;13.78;11.35;;;;;;;14.01;48.52;102834.91;1740405;81;20995;-49
2021/10/20 00:54:10;;;;;;;16.20;11.12;;;;;;;14.02;48.48;102820.92;1741735;82;20982;-49
2021/10/20 00:56:37;;;;;;;16.90;12.15;;;;;;;14.04;48.52;102820.48;1741359;82;21015;-49
2021/10/20 00:59:04;;;;;;;15.28;11.95;;;;;;;14.05;48.62;102819.63;1738816;81;21541;-50
2021/10/20 01:01:30;;;;;;;15.85;12.63;;;;;;;14.07;48.71;102814.38;1740637;81;21062;-50
2021/10/20 01:03:58;;;;;;;14.55;12.18;;;;;;;14.06;48.72;102812.19;1734480;82;21542;-49
2021/10/20 01:06:25;;;;;;;16.75;12.18;;;;;;;14.05;48.71;102809.15;1734059;82;21034;-49
2021/10/20 01:08:51;;;;;;;16.52;11.68;;;;;;;14.06;48.69;102812.61;1733443;82;21025;-48
2021/10/20 01:11:18;;;;;;;15.20;11.28;;;;;;;14.05;48.90;102807.84;1730947;82;20991;-50
2021/10/20 01:13:44;;;;;;;13.88;11.60;;;;;;;14.05;49.04;102811.77;1731517;81;20998;-49
2021/10/20 01:16:10;;;;;;;14.75;11.53;;;;;;;14.05;48.87;102807.84;1726728;82;21019;-50
2021/10/20 01:18:37;;;;;;;15.50;11.57;;;;;;;14.06;49.01;102810.88;1733509;82;21059;-50
2021/10/20 01:21:04;;;;;;;14.40;11.75;;;;;;;14.09;49.17;102814.80;1732217;81;21057;-50
2021/10/20 01:23:31;;;;;;;16.30;12.23;;;;;;;14.11;49.25;102809.55;1734275;82;21015;-50
2021/10/20 01:25:58;;;;;;;18.98;12.18;;;;;;;14.15;49.25;102810.85;1735051;82;21096;-49
2021/10/20 01:28:24;;;;;;;19.67;11.57;;;;;;;14.16;49.33;102807.34;1735733;82;21019;-50
2021/10/20 01:30:51;;;;;;;15.85;11.38;;;;;;;14.18;49.67;102811.28;1735423;82;21535;-47
2021/10/20 01:33:17;;;;;;;13.85;11.63;;;;;;;14.20;49.97;102813.46;1732370;82;20987;-49
2021/10/20 01:35:44;;;;;;;13.58;12.18;;;;;;;14.19;50.30;102810.39;1727583;82;21062;-49
2021/10/20 01:38:11;;;;;;;14.18;10.95;;;;;;;14.18;50.61;102806.89;1722222;82;21547;-49
2021/10/20 01:40:38;;;;;;;14.35;11.55;;;;;;;14.19;50.88;102809.96;1727848;82;21078;-49
2021/10/20 01:43:04;;;;;;;14.83;12.40;;;;;;;14.20;51.16;102806.45;1729610;82;21558;-50
2021/10/20 01:45:32;;;;;;;15.23;11.30;;;;;;;14.20;51.25;102805.14;1730429;82;21054;-50
2021/10/20 01:47:59;;;;;;;13.65;10.63;;;;;;;14.22;51.36;102800.77;1730551;82;21070;-50
2021/10/20 01:50:25;;;;;;;16.82;11.35;;;;;;;14.25;51.30;102806.00;1729096;82;21484;-49
2021/10/20 01:52:52;;;;;;;12.90;11.08;;;;;;;14.27;51.23;102810.80;1727629;82;20988;-50
2021/10/20 01:55:20;;;;;;;13.93;11.03;;;;;;;14.31;51.17;102812.55;1727553;82;21019;-49
2021/10/20 01:57:47;;;;;;;13.20;11.18;;;;;;;14.33;51.22;102812.11;1727407;82;21005;-48
2021/10/20 02:00:14;;;;;;;14.35;10.53;;;;;;;14.37;51.04;102813.84;1727258;82;21007;-50
2021/10/20 02:02:41;;;;;;;14.73;10.93;;;;;;;14.38;50.84;102805.11;1728962;82;21094;-49
2021/10/20 02:05:10;;;;;;;14.65;10.90;;;;;;;14.41;50.67;102805.08;1730643;82;21039;-50
2021/10/20 02:07:37;;;;;;;18.82;11.35;;;;;;;14.43;50.62;102812.49;1730627;82;21507;-50
2021/10/20 02:10:09;;;;;;;15.30;11.35;;;;;;;14.42;50.68;102814.70;1727978;82;21038;-50
2021/10/20 02:12:35;;;;;;;13.62;11.18;;;;;;;14.40;50.88;102816.45;1615414;88;21558;-49
2021/10/20 02:15:04;;;;;;;17.10;12.35;;;;;;;14.37;51.17;102819.07;1616927;88;21074;-49
2021/10/20 02:17:32;;;;;;;13.20;11.38;;;;;;;14.36;51.33;102821.25;1617441;88;21071;-50
2021/10/20 02:19:58;;;;;;;17.02;12.33;;;;;;;14.35;51.39;102819.95;1607916;88;21027;-49
2021/10/20 02:22:26;;;;;;;21.50;12.60;;;;;;;14.32;51.43;102815.59;1618760;87;21561;-50
2021/10/20 02:24:52;;;;;;;17.65;12.75;;;;;;;14.30;51.23;102814.73;1620039;88;21054;-50
2021/10/20 02:27:18;;;;;;;17.37;12.30;;;;;;;14.30;51.16;102814.73;1593048;90;21050;-50
2021/10/20 02:29:46;;;;;;;18.60;12.45;;;;;;;14.30;51.29;102819.97;1624358;88;21116;-49
2021/10/20 02:32:12;;;;;;;18.65;12.93;;;;;;;14.31;51.27;102817.80;1623934;88;20998;-50
2021/10/20 02:34:39;;;;;;;16.42;13.20;;;;;;;14.32;51.00;102809.05;1619766;88;21134;-49
2021/10/20 02:37:05;;;;;;;18.77;13.70;;;;;;;14.31;51.06;102806.01;1586923;90;21582;-49
2021/10/20 02:39:32;;;;;;;15.70;12.93;;;;;;;14.31;51.17;102806.01;1623868;88;21049;-49
2021/10/20 02:41:58;;;;;;;20.25;13.50;;;;;;;14.30;51.25;102800.33;1620012;88;21479;-50
2021/10/20 02:44:25;;;;;;;21.62;14.13;;;;;;;14.28;51.16;102795.53;1590876;90;21127;-50
2021/10/20 02:46:52;;;;;;;16.65;13.65;;;;;;;14.26;51.19;102794.64;1619742;88;21572;-50
2021/10/20 02:49:18;;;;;;;19.95;14.18;;;;;;;14.24;51.39;102793.77;1623483;88;21002;-50
2021/10/20 02:51:44;;;;;;;18.62;14.07;;;;;;;14.21;51.55;102798.16;1623494;88;21057;-50
2021/10/20 02:54:11;;;;;;;18.00;13.95;;;;;;;14.18;51.68;102800.34;1624716;88;21003;-48
2021/10/20 02:56:38;;;;;;;20.25;13.70;;;;;;;14.16;51.84;102802.10;1619779;88;21069;-50
2021/10/20 02:59:05;;;;;;;19.50;14.60;;;;;;;14.15;51.92;102803.43;1618341;88;21144;-49
2021/10/20 03:01:32;;;;;;;20.45;14.28;;;;;;;14.15;52.04;102801.69;1618988;88;21075;-49
2021/10/20 03:03:58;;;;;;;21.37;14.68;;;;;;;14.14;52.27;102788.58;1613263;88;21010;-49
2021/10/20 03:06:25;;;;;;;20.00;13.68;;;;;;;14.15;52.19;102796.45;1619949;88;20979;-50
2021/10/20 03:08:53;;;;;;;16.25;13.80;;;;;;;14.14;52.14;102797.31;1634034;85;21608;-50
2021/10/20 03:11:19;;;;;;;20.30;14.35;;;;;;;14.15;52.19;102796.45;1677907;85;21097;-50
2021/10/20 03:13:46;;;;;;;19.42;14.00;;;;;;;14.16;52.24;102788.13;1672601;85;21022;-50
2021/10/20 03:16:13;;;;;;;19.92;16.00;;;;;;;14.17;52.17;102792.08;1708344;82;20983;-50
2021/10/20 03:18:40;;;;;;;29.42;17.55;;;;;;;14.18;52.13;102793.80;1733567;82;21098;-49
2021/10/20 03:21:06;;;;;;;26.48;16.32;;;;;;;14.19;52.25;102790.33;1733719;82;21066;-50
2021/10/20 03:23:33;;;;;;;23.60;15.25;;;;;;;14.20;52.36;102789.43;1739863;82;20987;-49
2021/10/20 03:25:59;;;;;;;23.15;15.48;;;;;;;14.22;52.39;102787.67;1740467;82;21085;-49
2021/10/20 03:28:25;;;;;;;22.52;15.70;;;;;;;14.23;52.34;102789.44;1741274;82;20979;-50
2021/10/20 03:30:52;;;;;;;21.30;15.63;;;;;;;14.24;52.32;102788.54;1732888;82;20971;-49
2021/10/20 03:33:19;;;;;;;20.27;14.87;;;;;;;14.27;52.10;102794.20;1732588;81;21030;-49
2021/10/20 03:35:46;;;;;;;23.52;15.68;;;;;;;14.28;51.61;102792.91;1737085;82;20995;-50
2021/10/20 03:38:12;;;;;;;24.75;15.28;;;;;;;14.31;51.47;102798.16;1741132;82;21022;-50
2021/10/20 03:40:39;;;;;;;22.95;14.93;;;;;;;14.32;51.60;102795.95;1741281;82;21030;-50
2021/10/20 03:43:06;;;;;;;22.10;14.38;;;;;;;14.33;51.70;102788.55;1739610;82;21027;-50
2021/10/20 03:45:32;;;;;;;19.90;15.03;;;;;;;14.33;51.80;102789.84;1725054;82;21042;-50
2021/10/20 03:48:01;;;;;;;20.85;14.98;;;;;;;14.33;52.03;102795.09;1740213;82;21498;-51
2021/10/20 03:50:28;;;;;;;19.48;15.38;;;;;;;14.34;52.19;102792.03;1740258;82;21081;-50
2021/10/20 03:52:54;;;;;;;21.15;14.63;;;;;;;14.33;52.38;102792.47;1737645;82;20975;-50
2021/10/20 03:55:21;;;;;;;19.92;15.85;;;;;;;14.34;52.49;102795.50;1738145;81;21557;-47
2021/10/20 03:57:47;;;;;;;19.37;15.65;;;;;;;14.36;52.48;102798.14;1738059;81;21021;-50
2021/10/20 04:00:16;;;;;;;19.75;14.73;;;;;;;14.37;52.31;102792.88;1736722;82;21014;-50
2021/10/20 04:02:46;;;;;;;22.80;15.68;;;;;;;14.40;52.36;102799.86;1740502;82;21018;-50
2021/10/20 04:05:17;;;;;;;17.80;14.13;;;;;;;14.41;52.53;102805.08;1738277;82;21584;-50
2021/10/20 04:07:45;;;;;;;21.02;15.00;;;;;;;14.44;52.74;102807.70;1739671;81;21026;-50
2021/10/20 04:10:19;;;;;;;21.55;15.80;;;;;;;14.46;52.87;102809.87;1740287;82;20998;-47
2021/10/20 04:12:46;;;;;;;20.70;15.08;;;;;;;14.49;52.92;102803.29;1705281;83;21565;-50
2021/10/20 04:15:15;;;;;;;22.52;16.42;;;;;;;14.52;52.91;102799.79;1712640;83;21554;-50
2021/10/20 04:17:41;;;;;;;18.48;13.90;;;;;;;14.54;52.73;102800.66;1710374;83;21066;-49
2021/10/20 04:20:10;;;;;;;19.10;14.53;;;;;;;14.56;52.16;102798.46;1708063;83;20998;-50
2021/10/20 04:22:37;;;;;;;22.22;15.10;;;;;;;14.58;51.79;102800.63;1707969;83;21046;-50
2021/10/20 04:25:06;;;;;;;24.05;15.05;;;;;;;14.61;51.48;102801.91;1707708;83;21125;-50
2021/10/20 04:27:33;;;;;;;18.35;13.65;;;;;;;14.64;51.17;102799.72;1707423;83;21018;-50
2021/10/20 04:30:00;;;;;;;20.55;14.30;;;;;;;14.65;51.01;102804.94;1704349;83;21050;-49
2021/10/20 04:32:27;;;;;;;19.95;14.25;;;;;;;14.65;50.87;102799.70;1704928;83;21050;-49
2021/10/20 04:34:54;;;;;;;20.65;15.08;;;;;;;14.65;51.01;102802.31;1708361;83;21551;-50
2021/10/20 04:37:25;;;;;;;18.17;13.35;;;;;;;14.65;51.15;102806.25;1707947;83;21587;-48
2021/10/20 04:39:56;;;;;;;24.60;14.43;;;;;;;14.62;51.31;102802.35;1708049;83;21014;-50
2021/10/20 04:42:24;;;;;;;19.75;15.25;;;;;;;14.62;51.40;102799.73;1674567;85;21309;-49
2021/10/20 04:44:52;;;;;;;19.82;15.23;;;;;;;14.61;51.25;102803.22;1678058;85;21050;-50
2021/10/20 04:47:19;;;;;;;20.43;13.90;;;;;;;14.63;51.33;102806.70;1677985;85;21622;-50
2021/10/20 04:49:46;;;;;;;20.35;14.70;;;;;;;14.63;51.32;102809.78;1677178;85;21101;-49
2021/10/20 04:52:12;;;;;;;25.60;14.63;;;;;;;14.63;51.30;102810.63;1677122;85;21039;-51
2021/10/20 04:54:39;;;;;;;22.60;13.93;;;;;;;14.66;51.35;102804.08;1677815;85;21551;-50
2021/10/20 04:57:05;;;;;;;22.65;14.47;;;;;;;14.68;51.27;102799.69;1677983;85;21019;-50
2021/10/20 04:59:33;;;;;;;26.42;17.07;;;;;;;14.71;51.17;102801.43;1670676;85;21050;-49
2021/10/20 05:02:02;;;;;;;29.50;18.48;;;;;;;14.75;51.15;102807.52;1678063;85;21539;-51
2021/10/20 05:04:29;;;;;;;27.87;18.32;;;;;;;14.77;51.15;102807.06;1621691;88;21097;-50
2021/10/20 05:06:57;;;;;;;23.40;17.50;;;;;;;14.80;51.20;102805.72;1590442;90;21558;-50
2021/10/20 05:09:24;;;;;;;25.57;16.10;;;;;;;14.83;51.19;102805.70;1622981;88;21651;-50
2021/10/20 05:11:50;;;;;;;23.80;15.58;;;;;;;14.87;51.14;102803.49;1623416;88;21023;-50
2021/10/20 05:14:17;;;;;;;17.65;14.47;;;;;;;14.91;50.95;102807.83;1623221;88;21571;-50
2021/10/20 05:16:43;;;;;;;19.30;14.50;;;;;;;14.94;50.67;102811.30;1613294;88;21042;-49
2021/10/20 05:19:12;;;;;;;18.55;15.00;;;;;;;14.97;50.58;102815.22;1617154;88;21057;-50
2021/10/20 05:21:38;;;;;;;18.00;13.75;;;;;;;15.00;50.59;102816.48;1614094;88;21043;-50
2021/10/20 05:24:05;;;;;;;21.73;15.30;;;;;;;15.03;50.71;102823.47;1602226;89;21086;-49
2021/10/20 05:26:31;;;;;;;20.25;14.83;;;;;;;15.04;50.88;102821.30;1601470;89;21602;-50
2021/10/20 05:28:58;;;;;;;18.80;14.38;;;;;;;15.06;51.24;102822.16;1601550;89;21070;-50
2021/10/20 05:31:24;;;;;;;18.17;14.55;;;;;;;15.10;51.73;102821.25;1601986;89;21051;-50
2021/10/20 05:33:52;;;;;;;18.10;14.55;;;;;;;15.12;51.95;102822.98;1602005;89;21075;-49
2021/10/20 05:36:18;;;;;;;16.97;14.13;;;;;;;15.16;52.15;102826.44;1602134;89;21115;-50
2021/10/20 05:38:47;;;;;;;18.48;13.80;;;;;;;15.18;52.36;102822.93;1609852;88;21513;-49
2021/10/20 05:41:13;;;;;;;18.15;14.47;;;;;;;15.22;52.64;102826.39;1641174;87;21090;-50
2021/10/20 05:43:39;;;;;;;18.82;13.78;;;;;;;15.27;52.93;102832.48;1638794;87;21022;-50
2021/10/20 05:46:06;;;;;;;17.65;13.75;;;;;;;15.32;53.20;102840.73;1637504;87;20994;-50
2021/10/20 05:48:32;;;;;;;17.75;13.15;;;;;;;15.20;53.78;102841.27;1638385;87;21113;-50
2021/10/20 05:50:59;;;;;;;17.70;13.03;;;;;;;15.37;53.63;102836.77;1639806;87;21025;-50
2021/10/20 05:53:26;;;;;;;19.62;13.72;;;;;;;15.45;53.66;102853.34;1639080;87;21046;-50
2021/10/20 05:55:53;;;;;;;16.45;13.10;;;;;;;15.51;53.81;102850.66;1638535;87;21550;-49
2021/10/20 05:58:19;;;;;;;19.00;14.03;;;;;;;15.55;53.92;102856.30;1636708;87;20996;-50
2021/10/20 06:00:46;;;;;;;18.37;14.80;;;;;;;15.48;54.31;102859.01;1638246;87;21026;-49
2021/10/20 06:03:13;;;;;;;17.82;13.32;;;;;;;15.39;54.73;102858.61;1637884;87;21101;-50
2021/10/20 06:05:39;;;;;;;21.15;15.75;;;;;;;15.41;54.78;102856.84;1638782;87;21546;-48
2021/10/20 06:08:06;;;;;;;17.90;14.07;;;;;;;15.45;54.82;102861.20;1690390;83;21034;-49
2021/10/20 06:10:33;;;;;;;18.05;15.03;;;;;;;15.48;54.98;102862.05;1720587;83;21156;-49
2021/10/20 06:13:00;;;;;;;20.12;13.83;;;;;;;15.53;55.14;102858.08;1721208;83;21065;-50
2021/10/20 06:15:27;;;;;;;19.95;14.60;;;;;;;15.58;55.30;102858.04;1720784;83;21007;-47
2021/10/20 06:17:53;;;;;;;22.85;16.02;;;;;;;15.62;55.37;102861.06;1678036;85;21002;-50
2021/10/20 06:20:20;;;;;;;20.62;16.82;;;;;;;15.65;55.37;102864.52;1683105;85;21503;-49
2021/10/20 06:22:47;;;;;;;27.93;19.20;;;;;;;15.68;55.50;102867.13;1689754;84;21041;-50
2021/10/20 06:25:13;;;;;;;24.27;18.07;;;;;;;15.69;55.75;102863.60;1661933;86;21098;-49
2021/10/20 06:27:40;;;;;;;19.80;16.60;;;;;;;15.74;55.88;102866.19;1677835;84;21038;-49
2021/10/20 06:30:08;;;;;;;19.80;17.32;;;;;;;15.77;56.01;102864.40;1676288;85;21082;-50
2021/10/20 06:32:35;;;;;;;19.87;15.90;;;;;;;15.81;56.11;102866.11;1697553;84;21507;-50
2021/10/20 06:35:04;;;;;;;18.80;14.58;;;;;;;15.87;56.19;102873.04;1662130;86;21558;-51
2021/10/20 06:37:32;;;;;;;19.67;16.30;;;;;;;15.90;56.21;102868.66;1691359;84;21455;-50
2021/10/20 06:40:00;;;;;;;20.40;15.88;;;;;;;15.93;56.26;102865.98;1691207;84;21022;-48
2021/10/20 06:42:28;;;;;;;19.10;14.05;;;;;;;15.98;56.36;102865.50;1662419;86;21058;-49
2021/10/20 06:44:56;;;;;;;19.20;13.30;;;;;;;16.03;56.24;102866.30;1687724;84;21031;-50
2021/10/20 06:47:24;;;;;;;17.32;13.95;;;;;;;16.08;56.19;102869.77;1697296;84;21056;-49
2021/10/20 06:49:52;;;;;;;15.60;13.53;;;;;;;16.13;56.04;102870.59;1738232;82;21023;-49
2021/10/20 06:52:19;;;;;;;15.10;12.95;;;;;;;16.18;55.96;102874.02;1736064;82;21049;-49
2021/10/20 06:54:46;;;;;;;16.50;12.63;;;;;;;16.24;55.86;102879.20;1741667;82;21562;-49
2021/10/20 06:57:12;;;;;;;16.25;12.78;;;;;;;16.29;55.79;102878.72;1739022;82;21038;-51
2021/10/20 06:59:41;;;;;;;15.72;12.40;;;;;;;16.35;55.70;102882.14;1738905;82;21070;-49
2021/10/20 07:02:07;;;;;;;13.60;12.20;;;;;;;16.40;55.67;102881.66;1738330;82;21031;-49
2021/10/20 07:04:35;;;;;;;16.87;12.93;;;;;;;16.46;55.62;102880.27;1735749;82;21022;-51
2021/10/20 07:07:04;;;;;;;16.27;12.82;;;;;;;16.51;55.60;102886.35;1735872;82;20999;-52
2021/10/20 07:09:31;;;;;;;18.65;13.25;;;;;;;16.56;55.45;102889.81;1736043;82;21492;-49
2021/10/20 07:12:00;;;;;;;16.73;13.43;;;;;;;16.61;55.39;102888.84;1735814;82;21030;-49
2021/10/20 07:14:28;;;;;;;15.70;12.00;;;;;;;16.68;55.37;102890.95;1736189;82;21023;-52
2021/10/20 07:16:57;;;;;;;16.30;12.37;;;;;;;16.73;55.41;102890.47;1738346;82;20991;-49
2021/10/20 07:21:54;;;;;;;19.98;16.12;;;;;;;16.84;55.30;102885.91;1686185;85;21050;-50
2021/10/20 07:24:21;;;;;;;23.65;19.57;;;;;;;16.87;55.34;102884.56;1677615;85;21074;-49
2021/10/20 07:26:48;;;;;;;21.55;16.50;;;;;;;16.92;55.37;102882.28;1683754;85;21626;-49
2021/10/20 07:29:15;;;;;;;20.80;17.23;;;;;;;16.97;55.36;102879.59;1683955;85;21031;-48
2021/10/20 07:31:42;;;;;;;16.82;15.03;;;;;;;17.02;55.40;102879.10;1683661;85;21105;-50
2021/10/20 07:34:09;;;;;;;15.30;12.93;;;;;;;17.07;55.25;102882.08;1683774;85;21566;-49
2021/10/20 07:36:37;;;;;;;14.40;11.73;;;;;;;17.10;55.02;102883.80;1683565;85;21039;-50
2021/10/20 07:39:04;;;;;;;13.62;11.73;;;;;;;17.13;54.87;102875.84;1683788;85;21054;-52
2021/10/20 07:41:32;;;;;;;15.60;12.33;;;;;;;17.19;54.69;102877.06;1683834;85;21007;-48
2021/10/20 07:43:58;;;;;;;13.75;11.93;;;;;;;17.25;54.68;102874.33;1683709;85;21078;-49
2021/10/20 07:46:25;;;;;;;12.90;11.22;;;;;;;17.31;54.60;102870.28;1683735;85;21567;-48
2021/10/20 07:48:52;;;;;;;13.55;11.15;;;;;;;17.37;54.63;102870.66;1684087;85;21107;-50
2021/10/20 07:51:19;;;;;;;13.43;11.35;;;;;;;17.44;54.53;102865.25;1683701;85;21515;-49
2021/10/20 07:53:46;;;;;;;14.15;11.40;;;;;;;17.51;54.47;102864.73;1683861;85;21039;-51
2021/10/20 07:56:12;;;;;;;14.90;11.40;;;;;;;17.58;54.46;102864.59;1683468;85;21011;-49
2021/10/20 07:58:40;;;;;;;15.80;11.65;;;;;;;17.63;54.59;102866.72;1683373;85;21538;-50
2021/10/20 08:01:08;;;;;;;13.98;11.55;;;;;;;17.70;54.56;102863.53;1683728;85;21094;-50
2021/10/20 08:03:34;;;;;;;13.43;11.22;;;;;;;17.74;54.57;102864.73;1683798;85;20987;-49
2021/10/20 08:06:02;;;;;;;14.45;10.82;;;;;;;17.80;54.70;102865.94;1683632;85;21055;-50
2021/10/20 08:08:30;;;;;;;12.78;10.63;;;;;;;17.85;54.83;102869.81;1682383;85;21034;-49
2021/10/20 08:10:57;;;;;;;14.80;11.43;;;;;;;17.89;54.99;102861.84;1683594;85;21094;-48
2021/10/20 08:13:23;;;;;;;13.58;9.68;;;;;;;17.94;55.04;102864.83;1683691;85;21011;-52
2021/10/20 08:15:50;;;;;;;10.32;9.00;;;;;;;17.85;55.20;102860.59;1683736;85;21066;-49
2021/10/20 08:18:17;;;;;;;11.20;8.78;;;;;;;18.01;54.68;102860.72;1695879;82;21559;-49
2021/10/20 08:20:43;;;;;;;12.45;8.45;;;;;;;18.07;54.26;102854.05;1734853;82;21081;-49
2021/10/20 08:23:10;;;;;;;13.18;8.40;;;;;;;18.12;53.87;102856.13;1730836;82;21018;-48
2021/10/20 08:25:37;;;;;;;10.70;7.50;;;;;;;18.17;53.47;102860.00;1732330;82;21015;-50
2021/10/20 08:28:06;;;;;;;7.75;6.78;;;;;;;18.21;53.21;102862.55;1732277;82;21696;-48
2021/10/20 08:30:34;;;;;;;9.10;6.97;;;;;;;18.24;52.90;102858.95;1733033;82;21011;-49
2021/10/20 08:33:01;;;;;;;8.90;6.62;;;;;;;18.27;52.44;102853.64;1734590;82;21528;-53
2021/10/20 08:35:27;;;;;;;8.60;6.70;;;;;;;18.31;52.13;102860.58;1735637;82;21022;-48
2021/10/20 08:38:03;;;;;;;7.22;6.22;;;;;;;18.34;51.81;102856.58;1734863;82;21086;-49
2021/10/20 08:40:34;;;;;;;8.38;6.53;;;;;;;18.35;51.60;102854.34;1734220;82;20998;-46
2021/10/20 08:43:01;;;;;;;8.58;6.72;;;;;;;18.19;51.76;102848.97;1737773;82;21086;-50
2021/10/20 08:45:28;;;;;;;7.87;6.00;;;;;;;18.16;51.57;102843.75;1735223;82;21471;-49
2021/10/20 08:47:55;;;;;;;6.85;6.03;;;;;;;18.37;50.81;102843.31;1730857;82;21074;-49
2021/10/20 08:50:29;;;;;;;8.10;6.12;;;;;;;18.43;50.55;102841.87;1739170;82;20983;-51
2021/10/20 08:52:56;;;;;;;5.70;5.17;;;;;;;18.47;50.40;102843.57;1670188;85;21120;-47
2021/10/20 08:55:23;;;;;;;8.05;6.05;;;;;;;18.51;50.43;102834.25;1660675;85;21039;-49
2021/10/20 08:57:51;;;;;;;6.72;5.78;;;;;;;18.56;50.55;102839.43;1665483;85;21071;-50
2021/10/20 09:00:18;;;;;;;11.08;6.87;;;;;;;18.59;50.75;102842.86;1596410;89;21027;-49
2021/10/20 09:02:47;;;;;;;7.80;5.83;;;;;;;18.64;50.65;102836.17;1665353;85;21051;-50
2021/10/20 09:05:23;;;;;;;6.70;6.00;;;;;;;18.69;50.61;102836.95;1663744;85;21074;-50
2021/10/20 09:07:53;;;;;;;8.43;6.62;;;;;;;18.74;50.62;102840.33;1674278;85;21078;-52
2021/10/20 09:10:23;;;;;;;6.92;6.03;;;;;;;18.77;50.77;102840.28;1662481;85;21054;-47
2021/10/20 09:12:50;;;;;;;8.13;6.33;;;;;;;18.80;50.80;102841.95;1640324;87;21563;-53
2021/10/20 09:15:20;;;;;;;7.53;6.28;;;;;;;18.81;50.98;102836.67;1644493;87;21090;-50
2021/10/20 09:17:55;;;;;;;6.45;5.85;;;;;;;18.83;51.16;102836.18;1640764;87;21559;-51
2021/10/20 09:20:35;;;;;;;7.17;6.47;;;;;;;18.86;51.25;102842.69;1650878;87;21090;-50
2021/10/20 09:23:11;;;;;;;7.47;6.20;;;;;;;18.88;51.35;102835.61;1651281;86;21024;-50
2021/10/20 09:25:47;;;;;;;8.55;5.72;;;;;;;18.91;51.52;102833.36;1657367;86;21066;-49
2021/10/20 09:28:31;;;;;;;7.58;5.97;;;;;;;18.94;51.57;102824.91;1657125;86;21101;-51
2021/10/20 09:31:01;;;;;;;7.28;5.97;;;;;;;18.98;51.79;102826.56;1657318;86;21042;-51
2021/10/20 09:33:40;;;;;;;7.37;6.50;;;;;;;19.03;52.01;102824.70;1656675;86;21021;-51
2021/10/20 09:36:14;;;;;;;7.00;5.97;;;;;;;19.07;51.75;102822.84;1666552;86;21074;-49
2021/10/20 09:38:47;;;;;;;7.55;6.37;;;;;;;19.10;51.63;102820.98;1654875;86;20998;-48
2021/10/20 09:41:14;;;;;;;6.83;5.90;;;;;;;19.15;51.63;102815.61;1654531;86;21057;-51
2021/10/20 09:43:53;;;;;;;8.25;5.97;;;;;;;19.20;51.75;102810.65;1654606;86;21601;-52
2021/10/20 09:46:38;;;;;;;7.28;6.30;;;;;;;19.24;51.88;102810.98;1654632;86;21058;-54
2021/10/20 09:49:20;;;;;;;7.70;6.67;;;;;;;19.29;52.01;102804.24;1660382;86;21003;-50
2021/10/20 09:51:47;;;;;;;13.65;6.72;;;;;;;19.33;51.91;102800.20;1663890;86;21065;-50
2021/10/20 09:54:28;;;;;;;8.05;7.25;;;;;;;19.37;51.88;102804.50;1655970;86;21038;-52
2021/10/20 09:56:56;;;;;;;;;;;;;;;19.39;51.89;102794.77;1667267;86;21019;-50
2021/10/20 09:59:25;;;;;;;7.55;6.70;;;;;;;19.43;51.78;102795.09;1663254;86;20619;-51
2021/10/20 10:01:52;;;;;;;10.05;6.45;;;;;;;19.45;51.30;102788.48;1596959;89;21070;-51
2021/10/20 10:04:18;;;;;;;7.30;6.55;;;;;;;19.47;50.65;102787.50;1597729;89;21042;-50
2021/10/20 10:06:46;;;;;;;8.60;7.17;;;;;;;19.51;50.21;102784.80;1600864;89;21614;-48
2021/10/20 10:09:14;;;;;;;7.10;6.40;;;;;;;19.53;49.94;102780.34;1601704;87;21066;-50
2021/10/20 10:11:51;;;;;;;8.33;6.72;;;;;;;19.54;49.88;102782.09;1608083;88;20994;-47
2021/10/20 10:14:19;;;;;;;7.80;6.80;;;;;;;19.54;49.97;102774.17;1563095;90;21116;-49
2021/10/20 10:16:47;;;;;;;7.87;7.17;;;;;;;19.53;50.21;102765.82;1569315;91;21543;-49
2021/10/20 10:19:13;;;;;;;9.15;7.50;;;;;;;19.53;50.59;102764.50;1564913;91;21074;-50
2021/10/20 10:21:42;;;;;;;9.70;8.50;;;;;;;19.53;50.93;102763.18;1550015;90;21050;-50
2021/10/20 10:24:17;;;;;;;12.18;8.38;;;;;;;19.53;51.14;102761.86;1566012;90;21218;-49
2021/10/20 10:27:04;;;;;;;9.58;8.68;;;;;;;19.54;51.17;102764.93;1566535;90;21116;-50
2021/10/20 10:29:35;;;;;;;10.40;9.10;;;;;;;19.54;51.17;102761.81;1525129;94;21110;-47
2021/10/20 10:32:07;;;;;;;9.40;8.20;;;;;;;19.57;51.09;102764.83;1525025;94;21577;-52
2021/10/20 10:34:49;;;;;;;9.65;7.90;;;;;;;19.60;50.77;102767.40;1517471;93;21089;-49
2021/10/20 10:37:33;;;;;;;10.95;8.43;;;;;;;19.61;50.34;102762.06;1520541;94;21094;-49
2021/10/20 10:40:22;;;;;;;10.53;9.25;;;;;;;19.64;50.01;102759.80;1480563;97;21110;-49
2021/10/20 10:42:49;;;;;;;10.13;8.50;;;;;;;19.65;49.73;102750.95;1471616;97;21146;-49
2021/10/20 10:45:21;;;;;;;10.68;8.90;;;;;;;19.68;49.65;102747.77;1475117;97;21074;-47
2021/10/20 10:48:07;;;;;;;10.18;8.83;;;;;;;19.69;49.69;102744.67;1480632;95;21065;-50
2021/10/20 10:50:53;;;;;;;11.63;9.05;;;;;;;19.69;49.73;102738.08;1474699;97;21081;-49
2021/10/20 10:53:34;;;;;;;13.68;12.23;;;;;;;19.69;49.56;102734.11;1475192;97;21141;-49
2021/10/20 10:56:12;;;;;;;11.43;10.00;;;;;;;19.68;49.63;102733.23;1491757;95;21073;-51
2021/10/20 10:59:02;;;;;;;12.33;9.23;;;;;;;19.66;49.58;102731.58;1456731;97;21058;-48
2021/10/20 11:01:49;;;;;;;;;;;;;;;19.65;49.48;102725.86;1485250;96;21101;-47
2021/10/20 11:04:23;;;;;;;9.45;8.23;;;;;;;19.65;49.29;102737.75;1483691;96;20155;-50
2021/10/20 11:06:52;;;;;;;9.38;8.08;;;;;;;19.63;49.02;102726.36;1360693;105;21646;-49
2021/10/20 11:09:22;;;;;;;10.93;9.30;;;;;;;19.64;49.03;102733.39;1379656;102;21693;-51
2021/10/20 11:11:51;;;;;;;10.15;9.13;;;;;;;19.66;49.08;102727.13;1378674;102;21177;-48
2021/10/20 11:14:21;;;;;;;11.88;8.15;;;;;;;19.68;49.26;102727.11;1384078;103;21154;-52
2021/10/20 11:17:06;;;;;;;9.50;8.50;;;;;;;19.69;49.38;102728.83;1378657;102;21241;-50
2021/10/20 11:19:32;;;;;;;11.93;8.68;;;;;;;19.69;49.28;102722.23;1392998;102;21472;-50